Time;durP1;ratioP1;P1;durP2;ratioP2;P2;SDS_P1;SDS_P2;PMS_P1;PMS_P2;Temp;Humidity;BMP_temperature;BMP_pressure;BME280_temperature;BME280_humidity;BME280_pressure;Samples;Min_cycle;Max_cycle;Signal;HPM_P1;HPM_P2
2021/03/30 00:03:11;;;;;;;51.17;28.57;;;;;;;9.24;75.75;99855.19;468498;1200;103584;-42
2021/03/30 00:13:15;;;;;;;51.05;28.00;;;;;;;9.11;76.07;99861.16;468554;1200;103623;-41
2021/03/30 00:23:20;;;;;;;43.57;27.97;;;;;;;9.13;76.55;99864.42;469195;1200;103254;-42
2021/03/30 00:33:24;;;;;;;46.70;26.75;;;;;;;9.23;76.42;99864.92;468660;1199;103734;-42
2021/03/30 00:43:42;;;;;;;43.13;25.37;;;;;;;9.27;76.33;99856.63;468335;1199;103213;-41
2021/03/30 00:53:45;;;;;;;41.70;25.10;;;;;;;9.30;76.69;99864.97;469176;1200;103213;-42
2021/03/30 01:03:50;;;;;;;38.90;23.30;;;;;;;9.31;76.48;99873.70;468729;1199;103584;-41
2021/03/30 01:13:55;;;;;;;42.10;23.80;;;;;;;9.26;76.52;99874.28;469360;1165;103584;-41
2021/03/30 01:24:09;;;;;;;38.10;24.07;;;;;;;9.23;76.51;99864.92;468060;1199;103274;-41
2021/03/30 01:34:16;;;;;;;43.13;26.73;;;;;;;9.15;76.75;99866.86;468707;1199;103322;-41
2021/03/30 01:44:24;;;;;;;39.50;27.10;;;;;;;9.08;76.88;99861.54;468696;1199;103599;-42
2021/03/30 01:54:29;;;;;;;45.00;28.40;;;;;;;9.12;77.07;99861.97;468705;1199;104495;-41
2021/03/30 02:04:35;;;;;;;51.93;31.70;;;;;;;9.00;77.38;99845.03;468930;1198;103226;-41
2021/03/30 02:14:40;;;;;;;47.05;30.55;;;;;;;8.95;77.47;99847.41;468612;1200;103246;-40
2021/03/30 02:24:44;;;;;;;39.03;25.73;;;;;;;8.87;77.83;99840.44;468531;1198;103155;-41
2021/03/30 02:34:50;;;;;;;52.15;32.35;;;;;;;8.85;77.91;99840.63;468280;1198;103634;-41
2021/03/30 02:44:56;;;;;;;50.40;32.70;;;;;;;8.88;78.10;99853.44;468932;1199;104684;-41
2021/03/30 02:55:06;;;;;;;50.77;30.70;;;;;;;9.00;78.33;99853.77;467681;1200;103555;-41
2021/03/30 03:05:12;;;;;;;44.57;24.97;;;;;;;9.03;78.13;99847.30;467192;1200;103239;-43
2021/03/30 03:15:18;;;;;;;45.90;27.80;;;;;;;8.96;78.05;99831.38;468337;1198;104501;-43
2021/03/30 03:25:26;;;;;;;50.63;30.60;;;;;;;8.88;78.15;99828.88;468477;1199;103207;-41
2021/03/30 03:35:30;;;;;;;54.27;31.03;;;;;;;8.95;78.53;99826.30;467590;1199;103670;-40
2021/03/30 03:45:36;;;;;;;55.50;32.67;;;;;;;8.96;78.35;99835.84;468485;1200;103571;-40
2021/03/30 03:55:45;;;;;;;60.20;34.50;;;;;;;8.84;78.40;99825.00;468629;1200;104687;-42
2021/03/30 04:06:08;;;;;;;62.95;39.85;;;;;;;8.75;78.72;99818.20;468914;1199;103673;-41
2021/03/30 04:16:13;;;;;;;65.23;39.87;;;;;;;8.83;78.78;99839.19;468554;1198;103580;-40
2021/03/30 04:26:17;;;;;;;66.17;38.77;;;;;;;8.91;78.75;99836.41;468750;1199;103223;-42
2021/03/30 04:36:21;;;;;;;75.00;43.27;;;;;;;8.95;78.64;99848.22;468400;1200;103218;-41
2021/03/30 04:46:26;;;;;;;60.93;38.97;;;;;;;8.96;78.80;99855.13;468375;1198;104732;-41
2021/03/30 04:56:30;;;;;;;63.65;39.80;;;;;;;9.05;78.65;99842.64;469136;1200;103513;-41
2021/03/30 05:06:34;;;;;;;68.05;41.95;;;;;;;9.08;78.81;99847.53;468668;1199;103599;-41
2021/03/30 05:16:39;;;;;;;69.30;43.20;;;;;;;9.15;78.45;99849.20;468514;1200;103216;-41
2021/03/30 05:26:44;;;;;;;77.97;43.80;;;;;;;9.26;78.73;99854.99;469255;1199;103714;-41
2021/03/30 05:36:48;;;;;;;78.07;43.60;;;;;;;9.37;79.21;99870.30;468089;1198;103453;-41
2021/03/30 05:57:18;;;;;;;70.67;42.43;;;;;;;9.71;78.47;99872.18;467787;1198;103216;-42
2021/03/30 06:07:25;;;;;;;62.17;40.33;;;;;;;9.78;78.46;99878.31;469014;1199;103670;-41
2021/03/30 06:17:29;;;;;;;69.50;40.77;;;;;;;10.11;78.23;99883.77;468941;1200;103204;-40
2021/03/30 06:27:33;;;;;;;61.67;39.10;;;;;;;10.43;78.30;99898.20;468406;1199;103255;-41
2021/03/30 06:37:37;;;;;;;70.30;41.55;;;;;;;10.50;77.98;99900.86;468302;1199;103628;-40
2021/03/30 06:47:44;;;;;;;64.55;38.80;;;;;;;10.58;77.92;99904.13;468223;1199;103194;-42
2021/03/30 06:57:49;;;;;;;56.93;32.97;;;;;;;10.70;78.07;99913.14;467088;1200;103216;-41
2021/03/30 07:07:53;;;;;;;49.97;31.17;;;;;;;11.05;77.99;99913.81;468632;1198;103760;-41
2021/03/30 07:18:18;;;;;;;50.20;29.77;;;;;;;11.62;77.98;99917.73;468313;1200;103191;-40
2021/03/30 07:28:23;;;;;;;52.07;30.80;;;;;;;12.18;77.64;99914.60;468125;1198;103201;-40
2021/03/30 07:38:37;;;;;;;47.27;27.60;;;;;;;12.67;77.28;99915.03;468650;1199;103517;-41
2021/03/30 07:51:33;;;;;;;41.73;22.43;;;;;;;13.37;76.73;99921.97;469227;1192;104827;-41
2021/03/30 08:01:37;;;;;;;33.10;22.90;;;;;;;13.47;75.29;99927.60;468713;1196;103191;-41
2021/03/30 08:11:56;;;;;;;34.63;21.53;;;;;;;13.58;75.19;99925.28;469034;1197;103194;-41
2021/03/30 08:22:01;;;;;;;33.77;21.03;;;;;;;14.03;74.15;99937.34;468888;1196;103581;-42
2021/03/30 08:32:05;;;;;;;32.77;17.83;;;;;;;14.18;73.40;99939.63;468390;1198;103306;-40
2021/03/30 08:42:13;;;;;;;31.23;19.67;;;;;;;14.45;72.64;99947.38;469135;1199;103530;-42
2021/03/30 08:52:19;;;;;;;28.40;16.87;;;;;;;14.88;71.67;99939.23;469195;1199;103172;-42
2021/03/30 09:02:24;;;;;;;25.70;15.40;;;;;;;15.03;68.95;99939.64;468568;1200;103648;-42
2021/03/30 09:12:28;;;;;;;25.25;15.20;;;;;;;15.15;68.84;99948.50;468069;1200;103238;-41
2021/03/30 09:22:36;;;;;;;24.00;15.03;;;;;;;15.24;68.04;99941.80;468553;1200;103593;-41
2021/03/30 09:32:44;;;;;;;27.25;15.00;;;;;;;15.68;67.60;99947.70;468548;1197;103216;-41
2021/03/30 09:42:49;;;;;;;22.45;14.55;;;;;;;16.04;64.99;99935.16;468902;1197;103203;-41
2021/03/30 09:53:00;;;;;;;27.53;16.20;;;;;;;16.13;63.71;99939.12;468596;1198;103600;-41
2021/03/30 10:03:07;;;;;;;28.53;16.13;;;;;;;16.29;64.01;99930.38;468828;1196;103206;-40
2021/03/30 10:13:22;;;;;;;37.20;21.13;;;;;;;16.43;64.03;99937.09;468604;1197;103210;-41
2021/03/30 10:23:32;;;;;;;32.33;16.70;;;;;;;16.56;63.25;99933.32;468153;1196;103571;-41
2021/03/30 10:33:56;;;;;;;28.70;16.37;;;;;;;16.83;62.91;99933.64;468597;1196;103622;-42
2021/03/30 10:44:00;;;;;;;27.35;16.50;;;;;;;17.07;61.83;99932.48;469031;1196;103216;-41
2021/03/30 10:54:06;;;;;;;26.10;16.53;;;;;;;17.06;61.98;99912.16;468666;1199;103222;-41
2021/03/30 11:04:10;;;;;;;27.80;15.03;;;;;;;17.20;60.83;99926.00;468767;1197;104627;-40
2021/03/30 11:14:19;;;;;;;20.20;14.60;;;;;;;17.30;61.11;99901.33;468763;1198;103272;-41
2021/03/30 11:24:24;;;;;;;23.17;16.03;;;;;;;17.58;60.98;99900.42;468451;1196;103233;-41
2021/03/30 11:44:47;;;;;;;24.17;15.23;;;;;;;17.23;59.94;99889.95;467997;1196;103206;-41
2021/03/30 11:54:51;;;;;;;24.87;15.73;;;;;;;17.24;59.64;99886.23;468633;1199;103662;-41
2021/03/30 12:04:56;;;;;;;27.57;15.57;;;;;;;17.58;58.93;99876.36;467989;1196;103264;-41
2021/03/30 12:15:01;;;;;;;25.30;16.03;;;;;;;17.58;59.31;99882.52;468192;1200;103520;-41
2021/03/30 12:25:08;;;;;;;21.80;15.80;;;;;;;17.79;58.40;99864.92;468485;1196;103238;-41
2021/03/30 12:35:11;;;;;;;26.10;15.73;;;;;;;18.09;57.59;99853.81;468906;1199;103209;-43
2021/03/30 12:45:21;;;;;;;25.37;16.60;;;;;;;18.21;57.29;99849.13;468432;1197;103587;-42
2021/03/30 12:55:26;;;;;;;28.60;18.50;;;;;;;18.29;57.71;99842.54;468122;1196;103332;-43
2021/03/30 13:05:30;;;;;;;33.73;19.80;;;;;;;18.11;57.91;99838.30;468940;1197;103251;-41
2021/03/30 13:15:34;;;;;;;29.50;18.20;;;;;;;18.13;57.41;99830.83;468782;1196;103213;-42
2021/03/30 13:25:39;;;;;;;25.93;17.00;;;;;;;18.01;57.99;99828.30;469032;1197;104893;-42
2021/03/30 13:35:44;;;;;;;30.03;19.07;;;;;;;17.93;57.84;99815.33;468550;1196;103581;-41
2021/03/30 13:45:48;;;;;;;25.53;20.40;;;;;;;17.43;58.77;99810.08;467880;1196;103219;-41
2021/03/30 13:55:52;;;;;;;30.25;19.45;;;;;;;17.68;59.78;99810.46;468631;1197;103213;-41
2021/03/30 14:05:57;;;;;;;25.30;17.90;;;;;;;17.90;58.59;99810.48;468766;1200;103552;-42
2021/03/30 14:16:05;;;;;;;21.83;17.83;;;;;;;17.74;59.42;99801.47;468064;1196;103548;-41
2021/03/30 14:26:11;;;;;;;27.37;19.57;;;;;;;17.66;59.47;99793.02;468079;1196;103558;-42
2021/03/30 14:36:29;;;;;;;27.93;18.50;;;;;;;17.42;59.25;99787.88;468214;1196;103239;-42
2021/03/30 14:57:26;;;;;;;26.03;18.03;;;;;;;17.28;60.06;99775.13;468336;1197;103257;-42
2021/03/30 15:07:30;;;;;;;31.57;19.70;;;;;;;17.36;59.64;99758.66;467999;1197;103558;-42
2021/03/30 15:17:34;;;;;;;26.57;17.30;;;;;;;17.31;59.80;99759.39;468378;1197;103252;-42
2021/03/30 15:27:38;;;;;;;28.07;16.50;;;;;;;17.27;60.09;99749.42;468881;1199;104678;-42
2021/03/30 15:37:43;;;;;;;24.93;14.80;;;;;;;17.25;59.93;99752.34;469160;1196;103189;-41
2021/03/30 15:47:47;;;;;;;21.35;13.70;;;;;;;17.13;59.51;99741.77;468150;1198;103283;-41
2021/03/30 15:57:55;;;;;;;22.60;14.40;;;;;;;17.05;59.56;99744.86;469087;1196;103242;-42
2021/03/30 16:07:59;;;;;;;21.63;14.18;;;;;;;16.90;59.85;99747.28;468552;1196;103244;-42
2021/03/30 16:18:18;;;;;;;22.03;14.87;;;;;;;16.80;59.78;99741.80;468758;1198;103568;-42
2021/03/30 16:28:22;;;;;;;27.87;19.83;;;;;;;16.58;60.43;99745.16;468603;1196;103539;-44
2021/03/30 16:38:26;;;;;;;31.63;21.77;;;;;;;16.41;60.84;99740.83;468657;1196;103248;-42
2021/03/30 16:48:31;;;;;;;29.27;18.57;;;;;;;16.19;61.10;99743.38;468484;1197;103206;-42
2021/03/30 16:58:35;;;;;;;41.30;26.00;;;;;;;15.94;61.59;99736.52;468961;1200;103529;-42
2021/03/30 17:08:42;;;;;;;27.37;16.27;;;;;;;15.75;61.69;99735.06;468191;1196;103207;-42
2021/03/30 17:29:06;;;;;;;43.70;23.98;;;;;;;15.13;62.39;99747.27;467985;1196;103692;-42
2021/03/30 17:49:31;;;;;;;63.80;31.07;;;;;;;14.12;63.24;99763.13;470345;1196;103242;-42
2021/03/30 18:09:56;;;;;;;71.30;35.87;;;;;;;13.14;64.54;99765.02;469390;1196;103593;-42
2021/03/30 18:20:01;;;;;;;66.35;36.30;;;;;;;12.91;65.04;99766.43;469945;1196;103216;-41
2021/03/30 18:30:07;;;;;;;87.53;48.07;;;;;;;12.74;65.51;99773.30;469820;1196;103254;-41
2021/03/30 18:40:14;;;;;;;58.50;36.33;;;;;;;12.43;66.06;99771.48;469010;1196;103594;-41
2021/03/30 18:50:19;;;;;;;63.50;38.83;;;;;;;12.20;66.01;99771.20;469379;1196;103545;-42
2021/03/30 19:10:48;;;;;;;59.30;35.50;;;;;;;11.84;67.37;99753.23;469332;1196;103174;-41
2021/03/30 19:20:52;;;;;;;82.77;50.93;;;;;;;11.68;67.43;99765.08;468744;1195;103589;-41
2021/03/30 19:31:00;;;;;;;51.07;32.33;;;;;;;11.54;68.09;99756.34;469959;1195;103613;-42
2021/03/30 19:41:05;;;;;;;45.85;31.90;;;;;;;11.36;68.40;99761.50;468993;1196;103194;-42
2021/03/30 19:51:12;;;;;;;53.07;33.30;;;;;;;11.13;68.66;99755.84;470016;1196;103191;-43
2021/03/30 20:01:16;;;;;;;66.90;42.40;;;;;;;10.93;68.90;99750.55;469875;1196;103583;-42
2021/03/30 20:11:21;;;;;;;86.50;51.50;;;;;;;10.73;69.26;99742.61;469861;1196;103667;-41
2021/03/30 20:21:25;;;;;;;99.70;57.70;;;;;;;10.64;69.64;99741.98;469562;1196;103281;-43
2021/03/30 20:31:29;;;;;;;90.13;56.07;;;;;;;10.55;69.83;99740.56;468595;1196;103552;-41
2021/03/30 20:41:34;;;;;;;349.77;181.80;;;;;;;10.71;70.44;99742.81;469169;1196;103462;-41
2021/03/30 20:51:39;;;;;;;112.10;62.30;;;;;;;10.56;70.65;99736.09;470046;1194;103494;-41
2021/03/30 21:01:43;;;;;;;151.63;81.73;;;;;;;10.43;70.62;99742.19;469576;1196;103212;-42
2021/03/30 21:11:49;;;;;;;284.15;151.80;;;;;;;10.32;70.99;99742.77;468469;1196;104719;-41
2021/03/30 21:21:53;;;;;;;260.40;123.97;;;;;;;10.07;71.02;99730.08;469718;1195;103187;-41
2021/03/30 21:31:57;;;;;;;326.80;170.27;;;;;;;10.03;71.66;99731.48;468787;1195;103194;-41
2021/03/30 21:42:01;;;;;;;232.40;117.97;;;;;;;9.86;71.35;99722.28;468515;1196;103179;-41
2021/03/30 21:52:06;;;;;;;228.33;113.97;;;;;;;9.75;71.97;99714.94;469164;1196;103583;-42
2021/03/30 22:02:10;;;;;;;246.93;128.90;;;;;;;9.66;72.20;99713.47;469863;1195;103212;-42
2021/03/30 22:12:15;;;;;;;221.60;118.15;;;;;;;9.56;72.88;99710.39;468215;1196;103596;-41
2021/03/30 22:22:20;;;;;;;197.73;105.27;;;;;;;9.48;72.87;99709.55;468751;1196;103498;-43
2021/03/30 22:32:24;;;;;;;189.60;95.43;;;;;;;9.46;73.39;99708.09;469904;1196;103211;-41
2021/03/30 22:42:28;;;;;;;151.73;81.10;;;;;;;9.54;73.50;99714.04;470011;1195;103520;-41
2021/03/30 22:52:33;;;;;;;129.60;74.37;;;;;;;9.64;73.72;99703.09;469024;1195;103578;-41
2021/03/30 23:02:37;;;;;;;140.60;83.33;;;;;;;9.49;73.49;99710.37;470456;1196;103213;-41
2021/03/30 23:12:42;;;;;;;129.37;74.97;;;;;;;9.43;73.57;99706.66;469113;1196;103166;-41
2021/03/30 23:22:48;;;;;;;92.40;54.85;;;;;;;9.56;74.04;99705.11;469678;1196;103581;-41
2021/03/30 23:32:53;;;;;;;80.10;48.57;;;;;;;9.59;74.10;99702.07;468958;1196;103204;-40
2021/03/30 23:42:57;;;;;;;86.23;47.67;;;;;;;9.64;74.27;99692.53;470097;1196;103632;-41
2021/03/30 23:53:02;;;;;;;82.33;46.13;;;;;;;9.71;74.57;99696.04;468400;1196;103239;-42
